createdAt,value
2018-05-08T00:00:29.632Z,14.61
2018-05-08T00:01:29.606Z,14.59
2018-05-08T00:02:29.656Z,14.59
2018-05-08T00:03:29.569Z,14.52
2018-05-08T00:04:29.541Z,14.46
2018-05-08T00:05:29.511Z,14.46
2018-05-08T00:06:29.506Z,14.45
2018-05-08T00:07:29.484Z,14.52
2018-05-08T00:08:29.449Z,14.49
2018-05-08T00:09:29.436Z,14.45
2018-05-08T00:10:29.489Z,14.38
2018-05-08T00:11:29.392Z,14.30
2018-05-08T00:12:29.382Z,14.26
2018-05-08T00:13:29.405Z,14.34
2018-05-08T00:14:29.359Z,14.27
2018-05-08T00:15:29.442Z,14.20
2018-05-08T00:16:29.284Z,14.24
2018-05-08T00:17:30.355Z,14.26
2018-05-08T00:18:29.319Z,14.20
2018-05-08T00:19:29.216Z,14.19
2018-05-08T00:20:29.213Z,14.12
2018-05-08T00:21:29.167Z,14.11
2018-05-08T00:22:29.168Z,14.02
2018-05-08T00:23:29.142Z,14.19
2018-05-08T00:24:29.103Z,13.98
2018-05-08T00:25:29.109Z,14.01
2018-05-08T00:26:29.060Z,14.05
2018-05-08T00:27:29.052Z,13.96
2018-05-08T00:28:29.143Z,13.99
2018-05-08T00:29:29.013Z,14.01
2018-05-08T00:30:28.986Z,14.01
2018-05-08T00:31:28.988Z,14.01
2018-05-08T00:32:28.965Z,14.06
2018-05-08T00:33:28.949Z,13.99
2018-05-08T00:34:28.894Z,14.08
2018-05-08T00:35:28.897Z,13.91
2018-05-08T00:36:28.958Z,13.94
2018-05-08T00:37:28.851Z,13.93
2018-05-08T00:38:28.863Z,13.84
2018-05-08T00:39:28.829Z,13.86
2018-05-08T00:40:28.868Z,13.84
2018-05-08T00:41:28.743Z,13.80
2018-05-08T00:42:28.792Z,13.87
2018-05-08T00:43:28.769Z,13.87
2018-05-08T00:44:28.672Z,13.79
2018-05-08T00:45:28.667Z,13.87
2018-05-08T00:46:28.647Z,13.87
2018-05-08T00:47:28.603Z,13.81
2018-05-08T00:48:28.593Z,13.87
2018-05-08T00:49:28.569Z,13.79
2018-05-08T00:50:28.546Z,13.76
2018-05-08T00:51:28.525Z,13.86
2018-05-08T00:52:28.495Z,13.76
2018-05-08T00:53:28.471Z,13.69
2018-05-08T00:54:28.460Z,13.79
2018-05-08T00:55:28.444Z,13.75
2018-05-08T00:56:28.417Z,13.79
2018-05-08T00:57:28.393Z,13.76
2018-05-08T00:58:28.368Z,13.75
2018-05-08T00:59:28.361Z,13.71
2018-05-08T01:00:28.329Z,13.72
2018-05-08T01:01:28.313Z,13.68
2018-05-08T01:02:28.293Z,13.69
2018-05-08T01:03:28.277Z,13.68
2018-05-08T01:04:28.323Z,13.65
2018-05-08T01:05:28.231Z,13.68
2018-05-08T01:06:28.272Z,13.66
2018-05-08T01:07:28.250Z,13.65
2018-05-08T01:08:28.295Z,13.61
2018-05-08T01:09:28.153Z,13.55
2018-05-08T01:10:28.155Z,13.57
2018-05-08T01:11:28.095Z,13.65
2018-05-08T01:12:28.167Z,13.57
2018-05-08T01:13:28.045Z,13.51
2018-05-08T01:14:28.127Z,13.51
2018-05-08T01:15:28.027Z,13.54
2018-05-08T01:16:27.995Z,13.54
2018-05-08T01:17:27.962Z,13.59
2018-05-08T01:18:27.950Z,13.55
2018-05-08T01:19:27.924Z,13.57
2018-05-08T01:20:27.899Z,13.55
2018-05-08T01:21:27.875Z,13.57
2018-05-08T01:22:27.855Z,13.55
2018-05-08T01:23:27.842Z,13.53
2018-05-08T01:24:27.808Z,13.53
2018-05-08T01:25:27.799Z,13.53
2018-05-08T01:26:27.779Z,13.48
2018-05-08T01:27:27.746Z,13.48
2018-05-08T01:28:27.750Z,13.50
2018-05-08T01:29:27.697Z,13.47
2018-05-08T01:30:27.687Z,13.47
2018-05-08T01:31:27.659Z,13.43
2018-05-08T01:32:27.657Z,13.43
2018-05-08T01:33:27.627Z,13.39
2018-05-08T01:34:27.600Z,13.38
2018-05-08T01:35:28.642Z,13.35
2018-05-08T01:36:27.565Z,13.29
2018-05-08T01:37:27.527Z,13.32
2018-05-08T01:38:27.500Z,13.35
2018-05-08T01:39:27.471Z,13.38
2018-05-08T01:40:27.461Z,13.31
2018-05-08T01:41:27.428Z,13.29
2018-05-08T01:42:27.410Z,13.25
2018-05-08T01:43:27.396Z,13.14
2018-05-08T01:44:27.391Z,13.24
2018-05-08T01:45:27.376Z,13.22
2018-05-08T01:46:27.336Z,13.13
2018-05-08T01:47:27.300Z,13.10
2018-05-08T01:48:27.287Z,13.09
2018-05-08T01:49:27.266Z,13.06
2018-05-08T01:50:27.296Z,13.09
2018-05-08T01:51:27.224Z,13.14
2018-05-08T01:52:27.321Z,13.12
2018-05-08T01:53:27.189Z,13.13
2018-05-08T01:54:27.164Z,13.16
2018-05-08T01:55:27.155Z,13.16
2018-05-08T01:56:27.115Z,13.14
2018-05-08T01:57:27.083Z,13.12
2018-05-08T01:58:27.062Z,13.17
2018-05-08T01:59:27.048Z,13.10
2018-05-08T02:00:27.028Z,13.10
2018-05-08T02:01:26.998Z,13.07
2018-05-08T02:02:27.086Z,13.10
2018-05-08T02:03:26.953Z,13.04
2018-05-08T02:04:26.993Z,13.09
2018-05-08T02:05:26.914Z,12.99
2018-05-08T02:06:26.878Z,13.04
2018-05-08T02:07:26.871Z,12.99
2018-05-08T02:08:26.861Z,13.04
2018-05-08T02:09:26.815Z,13.04
2018-05-08T02:10:26.817Z,12.95
2018-05-08T02:11:26.794Z,12.98
2018-05-08T02:12:26.761Z,12.98
2018-05-08T02:13:26.841Z,12.96
2018-05-08T02:14:26.717Z,13.01
2018-05-08T02:15:26.702Z,12.96
2018-05-08T02:16:26.682Z,12.94
2018-05-08T02:17:26.674Z,12.89
2018-05-08T02:18:26.627Z,12.85
2018-05-08T02:19:26.593Z,12.84
2018-05-08T02:20:26.603Z,12.85
2018-05-08T02:21:26.562Z,12.84
2018-05-08T02:22:26.528Z,12.85
2018-05-08T02:23:26.501Z,12.88
2018-05-08T02:24:26.500Z,12.79
2018-05-08T02:25:26.477Z,12.80
2018-05-08T02:26:26.441Z,12.81
2018-05-08T02:27:26.430Z,12.84
2018-05-08T02:28:26.432Z,12.87
2018-05-08T02:29:26.441Z,12.74
2018-05-08T02:30:26.363Z,12.76
2018-05-08T02:31:26.349Z,12.71
2018-05-08T02:32:26.317Z,12.84
2018-05-08T02:33:26.281Z,12.63
2018-05-08T02:34:26.265Z,12.70
2018-05-08T02:35:26.247Z,12.58
2018-05-08T02:36:26.222Z,12.62
2018-05-08T02:37:26.205Z,12.66
2018-05-08T02:38:26.186Z,12.67
2018-05-08T02:39:26.159Z,12.61
2018-05-08T02:40:26.141Z,12.66
2018-05-08T02:41:26.141Z,12.71
2018-05-08T02:42:26.110Z,12.56
2018-05-08T02:43:26.063Z,12.59
2018-05-08T02:44:26.039Z,12.56
2018-05-08T02:45:26.023Z,12.59
2018-05-08T02:46:26.013Z,12.62
2018-05-08T02:47:25.966Z,12.58
2018-05-08T02:48:25.962Z,12.56
2018-05-08T02:49:25.944Z,12.56
2018-05-08T02:50:25.938Z,12.55
2018-05-08T02:51:25.900Z,12.55
2018-05-08T02:52:25.979Z,12.46
2018-05-08T02:53:25.980Z,12.51
2018-05-08T02:54:25.829Z,12.51
2018-05-08T02:55:25.796Z,12.43
2018-05-08T02:56:25.845Z,12.48
2018-05-08T02:57:25.757Z,12.34
2018-05-08T02:58:25.757Z,12.37
2018-05-08T02:59:25.726Z,12.38
2018-05-08T03:00:25.701Z,12.37
2018-05-08T03:01:25.737Z,12.37
2018-05-08T03:02:25.645Z,12.36
2018-05-08T03:03:25.636Z,12.33
2018-05-08T03:04:25.623Z,12.31
2018-05-08T03:05:25.588Z,12.21
2018-05-08T03:06:25.571Z,12.21
2018-05-08T03:07:25.608Z,12.19
2018-05-08T03:08:25.522Z,12.26
2018-05-08T03:09:25.495Z,12.19
2018-05-08T03:10:25.459Z,12.13
2018-05-08T03:11:25.439Z,12.13
2018-05-08T03:12:25.415Z,12.12
2018-05-08T03:13:25.397Z,12.15
2018-05-08T03:14:25.465Z,12.15
2018-05-08T03:15:25.349Z,12.15
2018-05-08T03:16:25.413Z,12.12
2018-05-08T03:17:25.320Z,12.18
2018-05-08T03:18:25.331Z,12.18
2018-05-08T03:19:25.252Z,12.19
2018-05-08T03:20:25.240Z,12.16
2018-05-08T03:21:25.218Z,12.15
2018-05-08T03:22:25.228Z,12.13
2018-05-08T03:23:25.174Z,12.16
2018-05-08T03:24:25.855Z,12.18
2018-05-08T03:25:25.148Z,12.16
2018-05-08T03:26:25.182Z,12.12
2018-05-08T03:27:25.110Z,12.16
2018-05-08T03:28:25.202Z,12.16
2018-05-08T03:29:25.057Z,12.12
2018-05-08T03:30:26.148Z,12.13
2018-05-08T03:31:25.003Z,12.11
2018-05-08T03:32:25.036Z,12.12
2018-05-08T03:33:24.934Z,12.16
2018-05-08T03:34:24.943Z,12.07
2018-05-08T03:35:27.002Z,12.15
2018-05-08T03:36:24.886Z,12.15
2018-05-08T03:37:24.940Z,12.15
2018-05-08T03:38:24.843Z,12.15
2018-05-08T03:39:24.932Z,12.12
2018-05-08T03:40:24.785Z,12.13
2018-05-08T03:41:24.826Z,12.12
2018-05-08T03:42:24.794Z,12.11
2018-05-08T03:43:24.712Z,12.16
2018-05-08T03:44:24.697Z,12.15
2018-05-08T03:45:24.681Z,12.15
2018-05-08T03:46:24.655Z,12.16
2018-05-08T03:47:24.689Z,12.15
2018-05-08T03:48:24.608Z,12.15
2018-05-08T03:49:24.682Z,12.00
2018-05-08T03:50:25.599Z,12.07
2018-05-08T03:51:24.542Z,12.12
2018-05-08T03:52:24.511Z,12.04
2018-05-08T03:53:24.506Z,12.03
2018-05-08T03:54:24.469Z,12.15
2018-05-08T03:55:24.469Z,12.03
2018-05-08T03:56:24.425Z,12.01
2018-05-08T03:57:24.472Z,12.03
2018-05-08T03:58:24.389Z,12.03
2018-05-08T03:59:24.386Z,11.98
2018-05-08T04:00:24.341Z,12.05
2018-05-08T04:01:24.321Z,12.03
2018-05-08T04:02:24.304Z,12.04
2018-05-08T04:03:24.267Z,12.04
2018-05-08T04:04:24.244Z,12.03
2018-05-08T04:05:24.227Z,12.03
2018-05-08T04:06:24.230Z,12.08
2018-05-08T04:07:24.182Z,12.04
2018-05-08T04:08:24.244Z,12.11
2018-05-08T04:09:24.155Z,12.11
2018-05-08T04:10:24.207Z,12.13
2018-05-08T04:11:24.141Z,12.15
2018-05-08T04:12:24.066Z,12.18
2018-05-08T04:13:24.039Z,12.08
2018-05-08T04:14:25.084Z,12.11
2018-05-08T04:15:24.032Z,12.13
2018-05-08T04:16:23.984Z,12.12
2018-05-08T04:17:23.958Z,12.12
2018-05-08T04:18:23.944Z,12.11
2018-05-08T04:19:23.905Z,12.11
2018-05-08T04:20:23.962Z,12.13
2018-05-08T04:21:23.868Z,12.18
2018-05-08T04:22:23.835Z,12.18
2018-05-08T04:23:23.838Z,12.13
2018-05-08T04:24:23.855Z,12.13
2018-05-08T04:25:23.780Z,12.11
2018-05-08T04:26:23.748Z,12.15
2018-05-08T04:27:23.795Z,12.15
2018-05-08T04:28:24.732Z,12.13
2018-05-08T04:29:23.713Z,12.18
2018-05-08T04:30:23.757Z,12.12
2018-05-08T04:31:23.666Z,12.13
2018-05-08T04:32:23.629Z,12.16
2018-05-08T04:33:23.607Z,12.15
2018-05-08T04:34:23.570Z,12.18
2018-05-08T04:35:25.663Z,12.15
2018-05-08T04:36:23.529Z,12.12
2018-05-08T04:37:24.532Z,12.15
2018-05-08T04:38:23.492Z,12.12
2018-05-08T04:39:24.529Z,12.16
2018-05-08T04:40:23.494Z,12.19
2018-05-08T04:41:24.466Z,12.15
2018-05-08T04:42:23.398Z,12.23
2018-05-08T04:43:44.390Z,12.18
2018-05-08T04:44:23.381Z,12.25
2018-05-08T04:45:24.384Z,12.26
2018-05-08T04:46:23.314Z,12.26
2018-05-08T04:47:25.403Z,12.33
2018-05-08T04:48:23.264Z,12.29
2018-05-08T04:49:29.021Z,12.36
2018-05-08T04:50:23.214Z,12.37
2018-05-08T04:51:28.929Z,12.46
2018-05-08T04:52:23.164Z,12.51
2018-05-08T04:53:23.228Z,12.51
2018-05-08T04:54:23.105Z,12.54
2018-05-08T04:55:34.007Z,12.46
2018-05-08T04:56:23.069Z,12.59
2018-05-08T04:57:44.115Z,12.63
2018-05-08T04:58:23.023Z,12.69
2018-05-08T04:59:35.953Z,12.71
2018-05-08T05:00:23.001Z,12.69
2018-05-08T05:01:34.974Z,12.71
2018-05-08T05:02:22.935Z,12.79
2018-05-08T05:03:25.047Z,12.81
2018-05-08T05:04:22.890Z,12.96
2018-05-08T05:05:28.528Z,13.03
2018-05-08T05:06:22.894Z,13.09
2018-05-08T05:07:28.546Z,13.22
2018-05-08T05:08:22.801Z,13.21
2018-05-08T05:09:28.452Z,13.17
2018-05-08T05:10:22.746Z,13.36
2018-05-08T05:11:39.635Z,13.35
2018-05-08T05:12:22.696Z,13.46
2018-05-08T05:13:22.710Z,13.55
2018-05-08T05:14:24.706Z,13.59
2018-05-08T05:15:22.660Z,13.72
2018-05-08T05:16:27.446Z,13.79
2018-05-08T05:17:22.592Z,13.80
2018-05-08T05:18:22.660Z,13.80
2018-05-08T05:19:22.591Z,13.91
2018-05-08T05:20:50.539Z,13.87
2018-05-08T05:21:22.509Z,13.93
2018-05-08T05:22:23.548Z,13.94
2018-05-08T05:23:22.443Z,13.98
2018-05-08T05:24:22.582Z,14.12
2018-05-08T05:25:22.400Z,14.12
2018-05-08T05:26:51.014Z,14.12
2018-05-08T05:27:22.386Z,14.21
2018-05-08T05:28:22.329Z,14.16
2018-05-08T05:29:23.346Z,14.34
2018-05-08T05:30:22.286Z,14.38
2018-05-08T05:31:35.153Z,14.29
2018-05-08T05:32:22.302Z,14.24
2018-05-08T05:33:28.068Z,14.27
2018-05-08T05:34:22.201Z,14.34
2018-05-08T05:35:37.000Z,14.41
2018-05-08T05:36:22.172Z,14.46
2018-05-08T05:37:26.996Z,14.53
2018-05-08T05:38:22.099Z,14.56
2018-05-08T05:39:23.106Z,14.63
2018-05-08T05:40:22.039Z,14.71
2018-05-08T06:27:47.184Z,16.52
2018-05-08T06:28:32.407Z,16.54
2018-05-08T06:30:24.592Z,16.54
2018-05-08T06:31:24.459Z,16.65
2018-05-08T06:32:24.515Z,16.55
2018-05-08T06:33:24.406Z,16.62
2018-05-08T06:34:24.396Z,16.65
2018-05-08T06:35:24.451Z,16.72
2018-05-08T06:36:24.341Z,16.77
2018-05-08T06:37:24.371Z,16.78
2018-05-08T06:38:24.305Z,16.95
2018-05-08T06:39:24.413Z,16.82
2018-05-08T06:40:24.273Z,17.00
2018-05-08T06:41:24.291Z,16.96
2018-05-08T06:42:24.235Z,16.98
2018-05-08T06:43:26.299Z,16.99
2018-05-08T06:44:24.275Z,17.17
2018-05-08T06:45:24.233Z,17.17
2018-05-08T06:46:24.115Z,17.15
2018-05-08T06:47:24.152Z,17.20
2018-05-08T06:48:24.084Z,17.15
2018-05-08T06:49:25.207Z,17.22
2018-05-08T06:50:24.033Z,17.18
2018-05-08T06:51:25.132Z,17.33
2018-05-08T06:52:23.973Z,17.28
2018-05-08T06:53:24.009Z,17.39
2018-05-08T06:54:24.338Z,17.43
2018-05-08T06:55:25.967Z,17.45
2018-05-08T06:56:24.410Z,17.54
2018-05-08T06:57:23.934Z,17.57
2018-05-08T06:58:23.831Z,17.66
2018-05-08T06:59:23.813Z,17.66
2018-05-08T07:00:23.782Z,17.76
2018-05-08T07:01:23.761Z,17.80
2018-05-08T07:02:23.747Z,17.77
2018-05-08T07:03:23.801Z,17.83
2018-05-08T07:04:23.752Z,17.87
2018-05-08T07:05:23.686Z,17.92
2018-05-08T07:06:23.673Z,17.84
2018-05-08T07:07:23.629Z,17.86
2018-05-08T07:08:23.673Z,18.04
2018-05-08T07:09:23.596Z,18.19
2018-05-08T07:10:23.560Z,18.20
2018-05-08T07:11:23.600Z,18.25
2018-05-08T07:12:23.581Z,18.26
2018-05-08T07:13:23.597Z,18.19
2018-05-08T07:14:23.446Z,18.26
2018-05-08T07:15:23.432Z,18.19
2018-05-08T07:16:23.413Z,18.23
2018-05-08T07:17:23.391Z,18.39
2018-05-08T07:18:23.366Z,18.32
2018-05-08T07:19:23.439Z,18.34
2018-05-08T07:20:23.319Z,18.44
2018-05-08T07:21:23.298Z,18.49
2018-05-08T07:22:23.273Z,18.57
2018-05-08T07:23:23.263Z,18.62
2018-05-08T07:24:24.294Z,18.56
2018-05-08T07:25:23.193Z,18.56
2018-05-08T07:26:23.185Z,18.66
2018-05-08T07:27:23.151Z,18.57
2018-05-08T07:28:23.128Z,18.84
2018-05-08T07:29:23.200Z,18.83
2018-05-08T07:30:23.080Z,18.91
2018-05-08T07:31:23.066Z,18.90
2018-05-08T07:32:23.068Z,19.02
2018-05-08T07:33:23.020Z,19.02
2018-05-08T07:34:23.023Z,19.10
2018-05-08T07:35:22.966Z,19.12
2018-05-08T07:36:23.072Z,19.17
2018-05-08T07:37:22.921Z,19.15
2018-05-08T07:38:23.014Z,19.15
2018-05-08T07:39:22.918Z,19.15
2018-05-08T07:40:22.864Z,19.17
2018-05-08T07:41:22.831Z,19.20
2018-05-08T07:42:22.827Z,19.20
2018-05-08T07:43:22.789Z,19.16
2018-05-08T07:44:22.765Z,19.32
2018-05-08T07:45:22.754Z,19.32
2018-05-08T07:46:22.716Z,19.43
2018-05-08T07:47:22.678Z,19.55
2018-05-08T07:48:22.665Z,19.55
2018-05-08T07:49:22.641Z,19.61
2018-05-08T07:50:22.746Z,19.72
2018-05-08T07:51:22.624Z,19.76
2018-05-08T07:52:22.652Z,19.89
2018-05-08T07:53:22.545Z,19.94
2018-05-08T07:54:22.645Z,20.07
2018-05-08T07:55:22.524Z,20.17
2018-05-08T07:56:22.573Z,20.27
2018-05-08T07:57:22.453Z,20.34
2018-05-08T07:58:22.475Z,20.33
2018-05-08T07:59:22.416Z,20.35
2018-05-08T08:00:22.587Z,20.33
2018-05-08T08:01:22.362Z,20.40
2018-05-08T08:02:22.416Z,20.42
2018-05-08T08:03:22.391Z,20.42
2018-05-08T08:04:22.308Z,20.46
2018-05-08T08:05:22.293Z,20.53
2018-05-08T08:06:22.333Z,20.56
2018-05-08T08:07:22.215Z,20.44
2018-05-08T08:08:22.344Z,20.56
2018-05-08T08:09:22.178Z,20.58
2018-05-08T08:10:23.342Z,20.60
2018-05-08T08:11:22.139Z,20.69
2018-05-08T08:12:23.279Z,20.75
2018-05-08T08:13:22.295Z,20.75
2018-05-08T08:14:22.180Z,20.78
2018-05-08T08:15:22.035Z,20.79
2018-05-08T08:16:22.092Z,20.79
2018-05-08T08:17:21.998Z,20.76
2018-05-08T08:18:22.112Z,20.81
2018-05-08T08:19:21.975Z,20.78
2018-05-08T08:20:21.924Z,20.83
2018-05-08T08:21:21.934Z,20.87
2018-05-08T08:22:21.884Z,20.88
2018-05-08T08:23:21.882Z,20.90
2018-05-08T08:24:21.934Z,20.90
2018-05-08T08:25:21.803Z,20.90
2018-05-08T08:26:21.882Z,21.01
2018-05-08T08:27:21.765Z,21.06
2018-05-08T08:28:21.774Z,21.06
2018-05-08T08:29:21.719Z,21.12
2018-05-08T09:02:39.177Z,22.44
2018-05-08T09:03:39.142Z,22.44
2018-05-08T09:04:39.154Z,22.44
2018-05-08T09:05:39.165Z,22.48
2018-05-08T09:06:39.064Z,22.46
2018-05-08T09:07:39.070Z,22.49
2018-05-08T09:08:39.005Z,22.61
2018-05-08T09:09:39.095Z,22.69
2018-05-08T09:10:38.979Z,22.76
2018-05-08T09:11:38.947Z,22.78
2018-05-08T09:12:38.927Z,22.79
2018-05-08T09:13:39.037Z,22.91
2018-05-08T09:14:38.865Z,22.93
2018-05-08T09:15:39.996Z,23.01
2018-05-08T09:16:38.857Z,23.11
2018-05-08T09:17:38.826Z,23.25
2018-05-08T09:18:38.804Z,23.42
2018-05-08T09:19:40.876Z,23.41
2018-05-08T09:20:38.746Z,23.59
2018-05-08T09:21:38.766Z,23.56
2018-05-08T09:22:38.694Z,23.59
2018-05-08T09:23:38.806Z,23.57
2018-05-08T09:24:38.648Z,23.60
2018-05-08T09:25:38.685Z,23.64
2018-05-08T09:26:38.615Z,23.68
2018-05-08T09:27:39.634Z,23.63
2018-05-08T09:28:38.602Z,23.69
2018-05-08T09:29:40.648Z,23.63
2018-05-08T09:30:38.542Z,23.81
2018-05-08T09:31:38.608Z,24.08
2018-05-08T09:32:38.467Z,24.16
2018-05-08T09:33:38.522Z,24.16
2018-05-08T09:34:38.427Z,24.21
2018-05-08T09:35:38.536Z,24.06
2018-05-08T09:36:38.394Z,24.05
2018-05-08T09:37:39.467Z,24.27
2018-05-08T09:38:38.344Z,24.36
2018-05-08T09:39:38.395Z,24.60
2018-05-08T09:40:38.303Z,24.67
2018-05-08T09:41:38.410Z,24.71
2018-05-08T09:42:38.272Z,24.80
2018-05-08T09:43:38.301Z,24.83
2018-05-08T09:44:38.207Z,24.84
2018-05-08T09:45:38.328Z,24.86
2018-05-08T09:46:38.160Z,24.74
2018-05-08T09:47:38.241Z,24.48
2018-05-08T09:48:38.124Z,24.42
2018-05-08T09:49:38.106Z,24.37
2018-05-08T09:50:38.087Z,24.19
2018-05-08T09:51:38.162Z,24.34
2018-05-08T09:52:38.070Z,24.29
2018-05-08T09:53:38.078Z,24.49
2018-05-08T09:54:37.989Z,24.80
2018-05-08T09:55:38.092Z,24.90
2018-05-08T09:56:37.960Z,25.30
2018-05-08T09:57:37.992Z,25.48
2018-05-08T09:58:37.910Z,25.45
2018-05-08T09:59:38.013Z,25.39
2018-05-08T10:00:37.866Z,25.39
2018-05-08T10:01:37.933Z,25.23
2018-05-08T10:02:37.829Z,25.08
2018-05-08T10:03:37.926Z,24.87
2018-05-08T10:04:37.782Z,24.75
2018-05-08T10:05:37.845Z,24.59
2018-05-08T10:06:37.763Z,24.56
2018-05-08T10:07:37.820Z,24.68
2018-05-08T10:08:37.694Z,24.74
2018-05-08T10:09:37.686Z,24.59
2018-05-08T10:10:37.726Z,24.66
2018-05-08T10:11:37.629Z,24.70
2018-05-08T10:12:37.607Z,24.60
2018-05-08T10:13:37.620Z,24.71
2018-05-08T10:14:37.692Z,24.86
2018-05-08T10:15:37.532Z,25.05
2018-05-08T10:16:37.624Z,25.19
2018-05-08T10:17:37.520Z,25.45
2018-05-08T10:18:37.625Z,25.66
2018-05-08T10:19:37.467Z,26.01
2018-05-08T10:20:37.639Z,26.16
2018-05-08T10:21:37.420Z,26.32
2018-05-08T10:22:37.549Z,26.35
2018-05-08T10:23:37.382Z,26.56
2018-05-08T10:24:37.463Z,26.60
2018-05-08T10:25:37.324Z,26.41
2018-05-08T10:26:37.367Z,26.46
2018-05-08T10:27:37.291Z,26.38
2018-05-08T10:28:37.399Z,26.46
2018-05-08T10:29:37.261Z,26.60
2018-05-08T10:30:37.297Z,26.71
2018-05-08T10:31:37.244Z,26.68
2018-05-08T10:32:37.354Z,26.64
2018-05-08T10:33:37.158Z,26.56
2018-05-08T10:34:37.220Z,26.51
2018-05-08T10:35:37.131Z,26.54
2018-05-08T10:36:37.235Z,26.34
2018-05-08T10:37:37.078Z,26.34
2018-05-08T10:38:38.208Z,26.34
2018-05-08T10:39:37.046Z,26.56
2018-05-08T10:40:37.196Z,26.69
2018-05-08T10:41:36.998Z,26.86
2018-05-08T10:42:37.150Z,27.02
2018-05-08T10:43:36.947Z,27.09
2018-05-08T10:44:37.088Z,27.05
2018-05-08T10:45:36.913Z,26.90
2018-05-08T10:46:36.996Z,26.83
2018-05-08T10:47:36.864Z,26.65
2018-05-08T10:48:37.034Z,26.66
2018-05-08T10:49:36.915Z,26.78
2018-05-08T10:50:36.997Z,26.86
2018-05-08T10:51:36.786Z,27.06
2018-05-08T10:52:36.832Z,27.25
2018-05-08T10:53:36.743Z,27.27
2018-05-08T10:54:36.846Z,27.63
2018-05-08T10:55:36.740Z,27.78
2018-05-08T10:56:36.768Z,27.84
2018-05-08T10:57:36.671Z,27.77
2018-05-08T10:58:36.793Z,27.90
2018-05-08T10:59:36.614Z,27.93
2018-05-08T11:00:36.682Z,27.96
2018-05-08T11:01:36.601Z,27.99
2018-05-08T11:02:36.710Z,27.91
2018-05-08T11:03:36.530Z,27.48
2018-05-08T11:04:43.402Z,27.55
2018-05-08T11:05:36.500Z,27.53
2018-05-08T11:06:36.636Z,27.38
2018-05-08T11:07:36.475Z,27.34
2018-05-08T11:08:36.511Z,27.50
2018-05-08T11:09:36.424Z,27.55
2018-05-08T11:10:47.278Z,27.68
2018-05-08T11:11:36.389Z,27.88
2018-05-08T11:12:36.429Z,28.02
2018-05-08T11:13:36.342Z,28.09
2018-05-08T11:14:37.409Z,28.14
2018-05-08T11:15:36.287Z,28.14
2018-05-08T11:16:43.444Z,28.18
2018-05-08T11:17:36.258Z,28.05
2018-05-08T11:19:08.340Z,27.76
2018-05-08T11:19:36.225Z,27.53
2018-05-08T11:20:36.232Z,27.43
2018-05-08T11:31:38.864Z,27.78
2018-05-08T11:32:07.375Z,27.88
2018-05-08T11:32:56.750Z,28.09
2018-05-08T11:34:18.902Z,28.13
2018-05-08T11:34:56.737Z,28.33
2018-05-08T11:35:56.698Z,28.38
2018-05-08T11:37:02.371Z,28.40
2018-05-08T11:37:56.657Z,28.33
2018-05-08T11:38:56.667Z,28.33
2018-05-08T11:39:56.619Z,28.08
2018-05-08T11:40:58.758Z,28.01
2018-05-08T11:41:56.608Z,28.13
2018-05-08T13:07:12.032Z,28.64
2018-05-08T13:08:22.010Z,28.80
2018-05-08T13:09:09.046Z,28.79
2018-05-08T13:10:10.197Z,28.73
2018-05-08T13:11:09.027Z,28.72
2018-05-08T13:12:11.126Z,28.73
2018-05-08T13:13:08.943Z,28.83
2018-05-08T13:14:14.006Z,28.89
2018-05-08T13:15:08.892Z,29.05
2018-05-08T13:16:20.982Z,29.03
2018-05-08T13:17:08.871Z,29.14
2018-05-08T13:18:21.607Z,29.12
2018-05-08T13:19:08.818Z,29.03
2018-05-08T13:20:09.845Z,29.02
2018-05-08T13:21:08.806Z,28.95
2018-05-08T13:22:10.901Z,29.05
2018-05-08T13:23:08.781Z,29.12
2018-05-08T13:24:09.975Z,29.10
2018-05-08T13:25:08.717Z,28.97
2018-05-08T13:26:13.486Z,28.80
2018-05-08T13:27:08.690Z,28.72
2018-05-08T13:28:23.533Z,28.46
2018-05-08T13:29:08.637Z,28.40
2018-05-08T13:30:10.792Z,28.14
2018-05-08T13:31:08.656Z,27.93
2018-05-08T13:32:10.795Z,27.91
2018-05-08T13:33:08.585Z,27.88
2018-05-08T13:34:29.714Z,27.80
2018-05-08T13:35:08.508Z,27.83
2018-05-08T13:36:08.495Z,27.81
2018-05-08T13:37:09.678Z,28.06
2018-05-08T13:38:08.478Z,28.20
2018-05-08T13:39:25.616Z,28.50
2018-05-08T13:40:08.414Z,28.54
2018-05-08T13:41:29.565Z,28.54
2018-05-08T13:42:08.383Z,28.48
2018-05-08T13:43:08.386Z,28.46
2018-05-08T13:44:15.088Z,28.50
2018-05-08T13:45:08.321Z,28.51
2018-05-08T13:46:10.455Z,28.57
2018-05-08T13:47:08.285Z,28.58
2018-05-08T13:48:20.018Z,28.73
2018-05-08T13:49:08.261Z,28.72
2018-05-08T13:50:30.366Z,28.83
2018-05-08T13:51:08.208Z,28.82
2018-05-08T13:52:29.340Z,28.92
2018-05-08T13:53:08.164Z,28.83
2018-05-08T13:54:13.069Z,28.91
2018-05-08T13:55:08.277Z,28.88
2018-05-08T13:56:19.032Z,28.89
2018-05-08T13:57:08.088Z,28.79
2018-05-08T13:58:08.186Z,28.67
2018-05-08T13:59:08.060Z,28.43
2018-05-08T14:00:08.091Z,28.38
2018-05-08T14:01:07.996Z,28.39
2018-05-08T14:02:19.976Z,28.36
2018-05-08T14:03:07.989Z,28.39
2018-05-08T14:04:10.202Z,28.50
2018-05-08T14:05:07.921Z,28.40
2018-05-08T14:06:10.867Z,28.38
2018-05-08T14:07:07.889Z,28.13
2018-05-08T14:08:07.894Z,27.78
2018-05-08T14:09:07.968Z,27.53
2018-05-08T14:10:07.822Z,27.45
2018-05-08T14:11:18.437Z,27.39
2018-05-08T14:12:07.781Z,27.52
2018-05-08T14:13:18.454Z,27.61
2018-05-08T14:14:07.735Z,27.63
2018-05-08T14:15:07.725Z,27.61
2018-05-08T14:16:07.705Z,27.59
2018-05-08T14:17:07.680Z,27.55
2018-05-08T14:18:07.671Z,27.33
2018-05-08T14:19:07.719Z,27.31
2018-05-08T14:20:07.636Z,27.31
2018-05-08T14:21:07.621Z,27.33
2018-05-08T14:22:07.610Z,27.11
2018-05-08T14:23:07.581Z,27.12
2018-05-08T14:24:07.550Z,27.24
2018-05-08T14:25:07.542Z,27.30
2018-05-08T14:26:07.509Z,27.39
2018-05-08T14:27:07.494Z,27.55
2018-05-08T14:28:07.477Z,27.55
2018-05-08T14:29:07.490Z,27.63
2018-05-08T14:30:07.487Z,27.84
2018-05-08T14:31:07.417Z,28.01
2018-05-08T14:32:07.388Z,28.02
2018-05-08T14:33:08.442Z,28.14
2018-05-08T14:34:07.356Z,28.13
2018-05-08T14:35:07.343Z,28.09
2018-05-08T14:36:07.321Z,27.88
2018-05-08T14:37:07.540Z,27.80
2018-05-08T14:38:07.294Z,27.61
2018-05-08T14:39:07.263Z,27.59
2018-05-08T14:40:07.237Z,27.48
2018-05-08T14:41:07.236Z,27.50
2018-05-08T14:42:07.268Z,27.58
2018-05-08T14:43:07.201Z,27.74
2018-05-08T14:44:07.282Z,27.74
2018-05-08T14:45:07.162Z,27.90
2018-05-08T14:46:07.147Z,27.93
2018-05-08T14:47:07.120Z,28.02
2018-05-08T14:48:07.113Z,28.14
2018-05-08T14:49:07.200Z,28.21
2018-05-08T14:50:07.084Z,28.24
2018-05-08T14:51:07.063Z,28.20
2018-05-08T14:52:07.012Z,28.24
2018-05-08T14:53:06.999Z,28.23
2018-05-08T14:54:06.984Z,28.23
2018-05-08T14:55:07.617Z,28.17
2018-05-08T14:56:06.966Z,28.14
2018-05-08T14:57:06.913Z,28.13
2018-05-08T14:58:06.906Z,28.02
2018-05-08T14:59:06.875Z,28.08
2018-05-08T15:00:07.284Z,28.14
2018-05-08T15:01:06.865Z,28.09
2018-05-08T15:02:06.816Z,28.08
2018-05-08T15:03:06.800Z,28.15
2018-05-08T15:04:06.786Z,28.14
2018-05-08T15:05:06.766Z,28.17
2018-05-08T15:06:06.822Z,28.13
2018-05-08T15:07:06.722Z,28.02
2018-05-08T15:08:07.849Z,28.06
2018-05-08T15:09:06.696Z,28.06
2018-05-08T15:10:06.765Z,27.99
2018-05-08T15:11:06.657Z,28.06
2018-05-08T15:12:06.675Z,27.98
2018-05-08T15:13:06.677Z,27.98
2018-05-08T15:14:06.594Z,27.87
2018-05-08T15:15:06.570Z,27.88
2018-05-08T15:16:06.565Z,27.78
2018-05-08T15:17:06.539Z,27.83
2018-05-08T15:18:06.588Z,27.87
2018-05-08T15:19:06.488Z,27.84
2018-05-08T15:20:06.614Z,27.81
2018-05-08T15:21:06.465Z,27.81
2018-05-08T15:22:06.442Z,27.76
2018-05-08T15:23:06.436Z,27.78
2018-05-08T15:24:06.404Z,27.72
2018-05-08T15:25:06.531Z,27.74
2018-05-08T15:26:06.397Z,27.62
2018-05-08T15:27:06.356Z,27.68
2018-05-08T15:28:06.313Z,27.65
2018-05-08T15:29:06.477Z,27.63
2018-05-08T15:30:06.289Z,27.55
2018-05-08T15:31:06.367Z,27.52
2018-05-08T15:32:06.237Z,27.52
2018-05-08T15:33:06.235Z,27.53
2018-05-08T15:34:06.226Z,27.53
2018-05-08T15:35:06.194Z,27.46
2018-05-08T15:36:06.200Z,27.38
2018-05-08T15:37:06.138Z,27.38
2018-05-08T15:38:06.240Z,27.40
2018-05-08T15:39:06.108Z,27.40
2018-05-08T15:40:06.118Z,27.48
2018-05-08T15:41:06.192Z,27.50
2018-05-08T15:42:06.131Z,27.43
2018-05-08T15:43:06.023Z,27.35
2018-05-08T15:44:07.167Z,27.28
2018-05-08T15:45:05.985Z,27.25